Time;durP1;ratioP1;P1;durP2;ratioP2;P2;SDS_P1;SDS_P2;PMS_P1;PMS_P2;Temp;Humidity;BMP_temperature;BMP_pressure;BME280_temperature;BME280_humidity;BME280_pressure;Samples;Min_cycle;Max_cycle;Signal;HPM_P1;HPM_P2
2021/03/14 00:00:42;;;;;;;21.93;11.10;;;;;;;5.55;76.51;97331.05;2198022;80;21841;-90
2021/03/14 00:03:45;;;;;;;28.67;14.68;;;;;;;5.51;76.50;97326.42;2197564;81;21113;-90
2021/03/14 00:06:47;;;;;;;15.18;5.08;;;;;;;5.45;76.80;97330.53;2197437;81;21316;-90
2021/03/14 00:09:48;;;;;;;27.85;12.15;;;;;;;5.37;76.89;97318.94;2197587;81;21177;-88
2021/03/14 00:12:50;;;;;;;141.00;60.65;;;;;;;5.29;76.86;97311.25;2197993;81;21268;-88
2021/03/14 00:15:52;;;;;;;116.85;54.90;;;;;;;5.23;77.32;97308.90;2197634;81;21299;-88
2021/03/14 00:18:53;;;;;;;80.53;31.17;;;;;;;5.16;77.27;97313.19;2197770;81;21288;-88
2021/03/14 00:21:55;;;;;;;48.42;16.45;;;;;;;5.12;77.23;97324.89;2197353;81;21181;-89
2021/03/14 00:24:56;;;;;;;29.90;10.35;;;;;;;5.08;77.30;97330.13;2197587;81;21311;-89
2021/03/14 00:27:58;;;;;;;12.15;5.42;;;;;;;5.03;77.55;97337.17;2197582;81;21141;-88
2021/03/14 00:31:00;;;;;;;9.50;4.42;;;;;;;4.96;77.54;97338.05;2197386;81;21649;-89
2021/03/14 00:34:01;;;;;;;10.50;4.15;;;;;;;4.86;77.73;97339.60;2198003;81;21173;-90
2021/03/14 00:37:03;;;;;;;7.25;3.42;;;;;;;4.80;77.80;97324.73;2201712;81;21157;-89
2021/03/14 00:40:04;;;;;;;6.12;2.87;;;;;;;4.79;77.88;97317.95;2198983;81;21278;-89
2021/03/14 00:43:06;;;;;;;4.90;2.58;;;;;;;4.80;78.07;97322.14;2197996;81;21160;-89
2021/03/14 00:46:07;;;;;;;5.58;3.25;;;;;;;4.81;78.10;97319.38;2197530;81;21255;-88
2021/03/14 00:49:09;;;;;;;7.55;4.95;;;;;;;4.83;77.97;97316.10;2197496;79;21330;-88
2021/03/14 00:52:11;;;;;;;5.30;3.60;;;;;;;4.80;77.96;97316.95;2197728;81;21593;-88
2021/03/14 00:55:12;;;;;;;6.40;3.62;;;;;;;4.76;77.88;97319.60;2197808;81;21315;-89
2021/03/14 00:58:14;;;;;;;6.15;3.52;;;;;;;4.72;77.98;97320.92;2197688;81;21692;-89
2021/03/14 01:01:15;;;;;;;6.37;2.77;;;;;;;4.67;78.11;97327.95;2201555;79;21324;-90
2021/03/14 01:04:17;;;;;;;7.58;3.62;;;;;;;4.63;78.22;97320.19;2205282;81;21584;-89
2021/03/14 01:07:18;;;;;;;6.35;3.08;;;;;;;4.59;78.24;97319.43;2205506;81;21715;-89
2021/03/14 01:10:20;;;;;;;7.92;3.72;;;;;;;4.56;78.37;97316.19;2205443;81;21271;-89
2021/03/14 01:13:21;;;;;;;6.37;3.67;;;;;;;4.49;78.47;97312.70;2205468;81;21287;-90
2021/03/14 01:16:23;;;;;;;6.03;3.08;;;;;;;4.44;78.43;97316.30;2205221;80;21812;-90
2021/03/14 01:19:25;;;;;;;4.10;3.42;;;;;;;4.40;78.56;97305.17;2205236;80;21299;-89
2021/03/14 01:22:26;;;;;;;22.50;12.58;;;;;;;4.35;78.81;97298.39;2204996;80;21200;-89
2021/03/14 01:25:28;;;;;;;9.20;5.42;;;;;;;4.33;79.14;97303.76;2205050;81;21295;-88
2021/03/14 01:28:29;;;;;;;11.35;5.10;;;;;;;4.33;79.28;97301.66;2205041;81;21161;-89
2021/03/14 01:31:31;;;;;;;6.80;4.33;;;;;;;4.33;79.45;97309.44;2205368;81;21327;-89
2021/03/14 01:34:32;;;;;;;7.70;4.08;;;;;;;4.31;79.38;97299.25;2205410;81;21149;-89
2021/03/14 01:37:34;;;;;;;4.83;3.50;;;;;;;4.37;79.41;97301.61;2205060;81;21291;-88
2021/03/14 01:40:36;;;;;;;6.78;4.10;;;;;;;4.41;79.41;97301.59;2205489;80;21291;-88
2021/03/14 01:43:38;;;;;;;7.72;4.17;;;;;;;4.43;79.50;97301.73;2205597;80;21137;-89
2021/03/14 01:46:39;;;;;;;5.78;3.45;;;;;;;4.43;79.54;97302.22;2205463;81;21579;-89
2021/03/14 01:49:41;;;;;;;2.90;2.50;;;;;;;4.44;79.60;97299.94;2205401;80;21217;-89
2021/03/14 01:52:42;;;;;;;5.20;3.02;;;;;;;4.44;79.44;97302.04;2205758;80;21196;-89
2021/03/14 01:55:44;;;;;;;4.25;2.62;;;;;;;4.46;79.57;97292.30;2205704;81;21291;-89
2021/03/14 01:58:45;;;;;;;4.08;2.67;;;;;;;4.50;79.52;97297.47;2205298;81;21775;-89
2021/03/14 02:01:47;;;;;;;3.17;2.85;;;;;;;4.55;79.58;97298.22;2200591;81;21319;-89
2021/03/14 02:04:49;;;;;;;5.47;3.42;;;;;;;4.57;79.47;97292.36;2197537;81;21165;-89
2021/03/14 02:07:50;;;;;;;8.83;4.95;;;;;;;4.54;79.51;97294.82;2197606;81;21165;-89
2021/03/14 02:10:52;;;;;;;6.17;3.58;;;;;;;4.52;79.45;97295.98;2197715;81;21307;-89
2021/03/14 02:13:53;;;;;;;5.00;3.70;;;;;;;4.51;79.52;97299.07;2197714;80;21288;-89
2021/03/14 02:16:55;;;;;;;5.75;3.90;;;;;;;4.50;79.38;97306.53;2197668;81;21323;-89
2021/03/14 02:19:57;;;;;;;5.62;4.30;;;;;;;4.49;79.49;97314.00;2197656;81;21189;-89
2021/03/14 02:22:58;;;;;;;10.78;5.25;;;;;;;4.45;79.44;97306.23;2198564;81;21307;-89
2021/03/14 02:26:00;;;;;;;6.80;4.58;;;;;;;4.46;79.45;97312.23;2167447;81;21145;-90
2021/03/14 02:29:01;;;;;;;8.80;4.03;;;;;;;4.45;79.32;97310.13;2197738;81;21153;-89
2021/03/14 02:32:03;;;;;;;6.90;3.77;;;;;;;4.42;79.28;97308.39;2197743;81;21129;-89
2021/03/14 02:35:05;;;;;;;16.48;7.83;;;;;;;4.39;79.35;97302.23;2199673;81;21311;-89
2021/03/14 02:38:06;;;;;;;15.98;7.90;;;;;;;4.38;79.36;97304.02;2197622;81;21344;-89
2021/03/14 02:41:08;;;;;;;12.25;5.72;;;;;;;4.37;79.25;97297.23;2197415;81;21168;-88
2021/03/14 02:44:10;;;;;;;4.97;4.03;;;;;;;4.35;79.32;97300.98;2197638;81;21157;-89
2021/03/14 02:47:11;;;;;;;5.60;4.08;;;;;;;4.34;79.40;97296.30;2197331;81;21145;-90
2021/03/14 02:50:13;;;;;;;6.03;3.35;;;;;;;4.34;79.40;97293.70;2197730;81;21744;-90
2021/03/14 02:53:14;;;;;;;3.98;3.55;;;;;;;4.31;79.26;97293.26;2197843;81;21315;-89
2021/03/14 02:56:16;;;;;;;5.30;3.20;;;;;;;4.32;79.39;97286.60;2197405;81;21738;-90
2021/03/14 02:59:18;;;;;;;4.37;2.87;;;;;;;4.36;79.33;97296.12;2197394;81;21140;-88
2021/03/14 03:02:19;;;;;;;6.15;4.17;;;;;;;4.39;79.23;97298.35;2200133;80;21303;-89
2021/03/14 03:05:21;;;;;;;6.60;4.25;;;;;;;4.37;79.18;97292.05;2201429;81;21755;-89
2021/03/14 03:08:22;;;;;;;11.20;6.03;;;;;;;4.35;79.12;97300.50;2201634;81;21184;-89
2021/03/14 03:11:24;;;;;;;13.60;7.33;;;;;;;4.32;79.07;97313.00;2201412;81;21284;-89
2021/03/14 03:14:25;;;;;;;9.63;5.75;;;;;;;4.29;79.16;97330.48;2201809;81;21140;-89
2021/03/14 03:17:27;;;;;;;8.68;5.45;;;;;;;4.33;79.15;97333.56;2201792;81;21310;-89
2021/03/14 03:20:29;;;;;;;8.13;4.42;;;;;;;4.34;79.08;97339.05;2201458;81;21287;-89
2021/03/14 03:23:30;;;;;;;6.05;4.20;;;;;;;4.36;79.19;97340.98;2201719;81;21176;-90
2021/03/14 03:26:32;;;;;;;6.20;4.05;;;;;;;4.38;79.22;97332.53;2201456;81;21264;-89
2021/03/14 03:29:34;;;;;;;5.97;4.30;;;;;;;4.38;79.22;97332.53;2201744;81;21279;-89
2021/03/14 03:32:35;;;;;;;6.50;4.00;;;;;;;4.35;79.23;97343.75;2201432;81;21559;-89
2021/03/14 03:35:37;;;;;;;7.35;5.25;;;;;;;4.28;79.24;97331.47;2201756;81;21176;-89
2021/03/14 03:38:38;;;;;;;12.88;7.75;;;;;;;4.28;79.22;97330.17;2201839;81;21299;-89
2021/03/14 03:41:40;;;;;;;7.90;5.22;;;;;;;4.31;79.37;97327.75;2204666;81;21136;-89
2021/03/14 03:44:41;;;;;;;10.18;6.00;;;;;;;4.35;79.34;97332.09;2203847;81;21164;-89
2021/03/14 03:47:43;;;;;;;8.88;6.05;;;;;;;4.36;79.36;97339.69;2202201;81;21156;-90
2021/03/14 03:50:45;;;;;;;12.13;6.05;;;;;;;4.36;79.34;97341.47;2201706;81;21201;-89
2021/03/14 03:53:46;;;;;;;11.10;6.25;;;;;;;4.34;79.31;97349.42;2201715;81;21200;-89
2021/03/14 03:56:48;;;;;;;9.35;6.08;;;;;;;4.33;79.31;97340.03;2201836;81;21129;-89
2021/03/14 03:59:49;;;;;;;12.00;7.28;;;;;;;4.35;79.22;97343.25;2201957;81;21141;-89
2021/03/14 04:02:51;;;;;;;22.50;12.43;;;;;;;4.38;79.24;97345.98;2203508;80;21327;-89
2021/03/14 04:05:52;;;;;;;20.32;11.25;;;;;;;4.41;79.19;97337.88;2202607;81;21616;-89
2021/03/14 04:08:54;;;;;;;32.95;16.45;;;;;;;4.40;79.07;97336.27;2201664;81;21703;-89
2021/03/14 04:11:56;;;;;;;22.32;11.40;;;;;;;4.35;78.95;97335.48;2201642;81;21553;-89
2021/03/14 04:14:57;;;;;;;19.45;9.05;;;;;;;4.32;78.94;97336.33;2203586;81;21137;-89
2021/03/14 04:17:59;;;;;;;15.13;7.65;;;;;;;4.28;78.89;97340.55;2202204;81;21189;-89
2021/03/14 04:21:00;;;;;;;17.32;7.60;;;;;;;4.27;78.80;97335.54;2201371;81;21303;-89
2021/03/14 04:24:02;;;;;;;14.18;7.08;;;;;;;4.28;78.82;97336.66;2201406;81;21157;-89
2021/03/14 04:27:04;;;;;;;11.35;7.37;;;;;;;4.31;78.83;97337.31;2201622;81;21133;-89
2021/03/14 04:30:05;;;;;;;15.95;8.80;;;;;;;4.33;78.85;97335.34;2201425;81;21735;-88
2021/03/14 04:33:07;;;;;;;11.78;6.80;;;;;;;4.30;78.75;97328.73;2201517;81;21616;-88
2021/03/14 04:36:08;;;;;;;7.25;5.25;;;;;;;4.24;78.67;97326.33;2201837;81;21299;-89
2021/03/14 04:39:10;;;;;;;10.32;6.08;;;;;;;4.21;78.60;97322.00;2201524;81;21280;-89
2021/03/14 04:42:11;;;;;;;21.35;11.22;;;;;;;4.19;78.47;97327.81;2201555;81;21284;-89
2021/03/14 04:45:13;;;;;;;15.88;8.00;;;;;;;4.20;78.43;97325.05;2201995;81;21307;-89
2021/03/14 04:48:15;;;;;;;15.98;6.62;;;;;;;4.21;78.34;97322.00;2201651;81;21311;-87
2021/03/14 04:51:16;;;;;;;13.28;6.42;;;;;;;4.23;78.32;97326.02;2202009;81;21316;-87
2021/03/14 04:54:18;;;;;;;12.68;5.33;;;;;;;4.24;78.30;97326.83;2204265;81;21140;-89
2021/03/14 04:57:19;;;;;;;12.60;5.05;;;;;;;4.22;78.25;97318.42;2204024;81;21147;-88
2021/03/14 05:00:21;;;;;;;10.72;4.78;;;;;;;4.19;78.17;97319.55;2203157;81;21193;-88
2021/03/14 05:03:22;;;;;;;11.28;4.60;;;;;;;4.17;78.18;97318.92;2201193;80;21808;-89
2021/03/14 05:06:24;;;;;;;5.08;3.77;;;;;;;4.15;78.05;97328.66;2201244;81;21280;-89
2021/03/14 05:09:26;;;;;;;9.25;4.45;;;;;;;4.15;78.04;97320.09;2201553;81;21357;-89
2021/03/14 05:12:27;;;;;;;7.75;5.15;;;;;;;4.18;78.04;97323.62;2201423;81;21146;-89
2021/03/14 05:15:29;;;;;;;7.85;4.53;;;;;;;4.23;77.96;97323.92;2201933;81;21188;-89
2021/03/14 05:18:31;;;;;;;8.65;3.60;;;;;;;4.27;77.94;97319.98;2201539;81;21169;-89
2021/03/14 05:21:32;;;;;;;6.60;4.10;;;;;;;4.26;77.75;97311.41;2202099;81;21160;-89
2021/03/14 05:24:34;;;;;;;7.10;3.95;;;;;;;4.27;77.63;97319.98;2201597;81;21274;-90
2021/03/14 05:27:35;;;;;;;9.33;3.92;;;;;;;4.23;77.58;97314.36;2201556;81;21763;-89
2021/03/14 05:30:37;;;;;;;8.28;4.05;;;;;;;4.22;77.52;97314.53;2202015;81;21192;-90
2021/03/14 05:33:38;;;;;;;6.72;4.20;;;;;;;4.26;77.48;97308.02;2201641;81;21315;-89
2021/03/14 05:36:40;;;;;;;6.33;3.75;;;;;;;4.29;77.48;97314.94;2201811;81;21338;-90
2021/03/14 05:39:42;;;;;;;4.92;3.20;;;;;;;4.32;77.46;97319.48;2201956;81;21747;-89
2021/03/14 05:42:44;;;;;;;9.83;4.10;;;;;;;4.38;77.41;97314.88;2202062;81;21263;-89
2021/03/14 05:45:45;;;;;;;7.75;4.85;;;;;;;4.43;77.36;97325.05;2202754;81;21138;-89
2021/03/14 05:48:47;;;;;;;6.47;4.37;;;;;;;4.46;77.32;97316.12;2201546;81;21299;-89
2021/03/14 05:51:48;;;;;;;5.78;3.58;;;;;;;4.49;77.29;97311.41;2201908;81;21330;-89
2021/03/14 05:54:50;;;;;;;9.85;4.10;;;;;;;4.52;77.13;97311.54;2202481;81;21256;-90
2021/03/14 05:57:51;;;;;;;10.70;5.12;;;;;;;4.55;77.23;97313.28;2203152;81;21506;-90
2021/03/14 06:00:53;;;;;;;10.78;6.03;;;;;;;4.64;77.11;97321.80;2201880;81;21152;-90
2021/03/14 06:03:55;;;;;;;11.65;6.65;;;;;;;4.73;77.05;97322.03;2201496;80;21322;-90
2021/03/14 06:06:56;;;;;;;10.35;7.60;;;;;;;4.81;76.92;97327.15;2201599;81;21326;-89
2021/03/14 06:09:58;;;;;;;25.82;13.10;;;;;;;4.89;76.83;97335.34;2202147;81;21200;-90
2021/03/14 06:13:00;;;;;;;15.35;7.53;;;;;;;4.99;76.80;97348.06;2201577;81;21596;-89
2021/03/14 06:16:01;;;;;;;11.93;5.90;;;;;;;5.06;76.61;97352.38;2201476;81;21148;-89
2021/03/14 06:19:03;;;;;;;12.28;6.35;;;;;;;5.12;76.49;97361.22;2201984;81;21299;-89
2021/03/14 06:22:05;;;;;;;11.65;6.15;;;;;;;5.21;76.45;97364.07;2201500;81;21331;-89
2021/03/14 06:25:06;;;;;;;10.23;7.10;;;;;;;5.34;76.40;97359.55;2202353;81;21688;-89
2021/03/14 06:28:08;;;;;;;8.68;5.60;;;;;;;5.47;76.16;97353.22;2201625;81;21205;-89
2021/03/14 06:31:10;;;;;;;7.60;4.67;;;;;;;5.62;76.00;97365.70;2201705;81;21609;-90
2021/03/14 06:34:12;;;;;;;5.17;3.85;;;;;;;5.77;75.87;97372.69;2201633;81;21561;-89
2021/03/14 06:37:14;;;;;;;8.90;5.83;;;;;;;5.84;75.65;97365.26;2201911;81;21708;-90
2021/03/14 06:40:15;;;;;;;10.55;6.08;;;;;;;5.94;75.56;97366.30;2203429;81;21164;-90
2021/03/14 06:43:17;;;;;;;9.55;5.40;;;;;;;6.02;75.42;97386.98;2202725;81;21169;-89
2021/03/14 06:46:19;;;;;;;11.88;5.67;;;;;;;6.11;75.41;97385.89;2203613;81;21310;-89
2021/03/14 06:49:20;;;;;;;10.28;6.17;;;;;;;6.22;75.05;97392.42;2205096;81;21176;-88
2021/03/14 06:52:22;;;;;;;9.28;5.62;;;;;;;6.35;74.84;97395.15;2201850;81;21267;-89
2021/03/14 06:55:24;;;;;;;7.85;5.58;;;;;;;6.43;74.55;97396.83;2202727;81;21299;-90
2021/03/14 06:58:26;;;;;;;7.37;5.15;;;;;;;6.48;74.29;97397.87;2201992;81;21719;-90
2021/03/14 07:01:28;;;;;;;8.45;5.87;;;;;;;6.56;73.94;97409.45;2202075;80;21146;-89
2021/03/14 07:04:30;;;;;;;15.72;6.37;;;;;;;6.58;73.63;97403.26;2198191;81;21292;-92
2021/03/14 07:07:32;;;;;;;8.93;5.62;;;;;;;6.63;73.56;97396.52;2198139;81;21279;-92
2021/03/14 07:10:37;;;;;;;11.22;5.37;;;;;;;6.68;73.22;97397.27;2198561;81;21157;-88
2021/03/14 07:13:38;;;;;;;9.35;5.83;;;;;;;6.69;73.25;97394.48;2197590;81;21173;-87
2021/03/14 07:16:42;;;;;;;8.75;6.35;;;;;;;6.73;73.05;97393.10;2197893;81;21248;-89
2021/03/14 07:19:47;;;;;;;12.07;7.47;;;;;;;6.83;72.93;97392.78;2197601;81;21160;-88
2021/03/14 07:22:48;;;;;;;10.60;7.10;;;;;;;6.97;72.92;97397.12;2197560;81;21778;-87
2021/03/14 07:25:53;;;;;;;14.85;8.65;;;;;;;7.05;72.74;97400.89;2198379;81;22125;-87
2021/03/14 07:28:57;;;;;;;15.35;8.40;;;;;;;7.07;72.51;97406.70;2197850;81;21308;-88
2021/03/14 07:31:59;;;;;;;11.78;7.28;;;;;;;7.06;72.44;97398.59;2197552;81;21622;-87
2021/03/14 07:35:01;;;;;;;15.28;7.42;;;;;;;7.11;72.50;97403.21;2197531;81;21185;-84
2021/03/14 07:38:03;;;;;;;12.23;6.83;;;;;;;7.23;72.45;97391.80;2197720;79;21176;-87
2021/03/14 07:41:05;;;;;;;12.70;7.85;;;;;;;7.37;72.08;97390.88;2215519;80;21156;-86
2021/03/14 07:44:06;;;;;;;9.18;6.75;;;;;;;7.39;71.88;97385.78;2203749;79;21151;-88
2021/03/14 07:47:07;;;;;;;10.88;5.90;;;;;;;7.43;71.27;97389.32;2222479;79;21255;-87
2021/03/14 07:50:09;;;;;;;12.65;6.00;;;;;;;7.57;71.95;97397.50;2220632;79;21282;-91
2021/03/14 07:53:11;;;;;;;14.93;8.38;;;;;;;7.75;71.47;97405.61;2237398;79;21282;-86
2021/03/14 07:56:13;;;;;;;9.88;6.10;;;;;;;8.00;71.23;97411.14;2196152;80;21291;-91
2021/03/14 07:59:16;;;;;;;9.18;5.50;;;;;;;8.18;70.49;97430.16;2185412;80;22493;-87
2021/03/14 08:02:18;;;;;;;8.28;5.17;;;;;;;8.36;69.95;97432.27;2231727;79;21147;-87
2021/03/14 08:05:19;;;;;;;8.20;4.83;;;;;;;8.47;69.11;97436.40;2208828;80;21290;-87
2021/03/14 08:08:21;;;;;;;7.87;5.10;;;;;;;8.56;69.09;97433.11;2204793;79;21622;-89
2021/03/14 08:11:22;;;;;;;8.15;5.37;;;;;;;8.59;69.08;97429.30;2203416;80;21290;-88
2021/03/14 08:14:23;;;;;;;7.55;5.15;;;;;;;8.59;68.56;97430.09;2204937;79;21710;-89
2021/03/14 08:17:25;;;;;;;14.07;7.87;;;;;;;8.55;68.25;97438.83;2204848;80;21254;-88
2021/03/14 08:20:27;;;;;;;9.70;6.17;;;;;;;8.48;68.62;97436.70;2197163;80;21599;-88
2021/03/14 08:23:28;;;;;;;9.85;5.78;;;;;;;8.47;68.37;97444.23;2207976;80;21282;-89
2021/03/14 08:26:30;;;;;;;8.68;4.85;;;;;;;8.51;68.19;97442.05;2199998;80;21128;-87
2021/03/14 08:29:31;;;;;;;12.30;6.37;;;;;;;8.59;68.15;97451.47;2202744;80;21306;-87
2021/03/14 08:32:33;;;;;;;8.73;4.72;;;;;;;8.72;68.40;97445.80;2196037;80;21146;-85
2021/03/14 08:35:34;;;;;;;7.92;4.30;;;;;;;8.95;67.90;97451.94;2205100;80;21725;-85
2021/03/14 08:38:36;;;;;;;9.28;4.05;;;;;;;9.13;67.69;97465.20;2197080;79;21253;-86
2021/03/14 08:41:39;;;;;;;11.25;5.85;;;;;;;9.25;66.68;97465.94;2193486;80;21158;-87
2021/03/14 08:44:41;;;;;;;15.40;6.97;;;;;;;9.26;65.90;97457.89;2188967;81;21325;-90
2021/03/14 08:47:43;;;;;;;7.83;4.65;;;;;;;9.29;64.83;97462.70;2193319;80;21294;-87
2021/03/14 08:50:44;;;;;;;12.28;5.97;;;;;;;9.32;65.48;97458.88;2195849;81;21314;-88
2021/03/14 08:53:46;;;;;;;9.30;5.12;;;;;;;9.31;66.06;97461.19;2190506;81;21290;-88
2021/03/14 08:56:47;;;;;;;4.72;3.70;;;;;;;9.33;64.98;97477.48;2188760;81;21727;-87
2021/03/14 08:59:49;;;;;;;4.30;2.70;;;;;;;9.33;64.71;97477.48;2194571;81;21297;-86
2021/03/14 09:02:50;;;;;;;9.73;7.67;;;;;;;9.35;64.00;97491.95;2196187;80;21122;-88
2021/03/14 09:05:52;;;;;;;10.20;3.77;;;;;;;9.35;62.04;97483.31;2194575;80;21308;-87
2021/03/14 09:08:53;;;;;;;5.45;2.92;;;;;;;9.36;62.84;97482.30;2202567;80;21357;-88
2021/03/14 09:11:55;;;;;;;6.70;3.22;;;;;;;9.33;61.29;97490.55;2194304;81;21171;-85
2021/03/14 09:14:56;;;;;;;6.55;2.67;;;;;;;9.33;60.81;97487.44;2192497;80;22300;-83
2021/03/14 09:17:57;;;;;;;3.90;2.20;;;;;;;9.36;61.26;97490.14;2205942;80;21251;-85
2021/03/14 09:20:59;;;;;;;5.20;1.98;;;;;;;9.37;60.97;97487.83;2192868;80;21284;-85
2021/03/14 09:24:00;;;;;;;4.37;2.17;;;;;;;9.40;60.83;97502.58;2194882;81;21321;-85
2021/03/14 09:27:02;;;;;;;3.65;1.85;;;;;;;9.44;60.57;97497.78;2195884;81;21561;-85
2021/03/14 09:30:04;;;;;;;2.47;1.80;;;;;;;9.44;59.85;97487.83;2189732;80;21144;-85
2021/03/14 09:33:05;;;;;;;2.92;1.50;;;;;;;9.44;59.29;97489.14;2193267;80;21281;-87
2021/03/14 09:36:07;;;;;;;3.95;1.62;;;;;;;9.34;58.19;97487.73;2200127;80;21757;-86
2021/03/14 09:39:08;;;;;;;2.67;1.80;;;;;;;9.34;57.50;97490.84;2187916;81;21296;-86
2021/03/14 09:42:09;;;;;;;3.83;1.75;;;;;;;9.35;57.20;97494.56;2197600;80;21121;-86
2021/03/14 09:45:13;;;;;;;4.28;1.90;;;;;;;9.39;57.58;97480.58;2211577;80;21310;-86
2021/03/14 09:48:15;;;;;;;1.98;1.67;;;;;;;9.47;57.75;97484.30;2192951;80;21305;-86
2021/03/14 09:51:17;;;;;;;1.67;1.30;;;;;;;9.61;57.31;97485.11;2196637;81;21145;-89
2021/03/14 09:54:18;;;;;;;3.35;1.90;;;;;;;9.75;57.34;97485.87;2193870;81;21322;-86
2021/03/14 09:57:20;;;;;;;10.35;5.95;;;;;;;9.95;55.38;97480.09;2193712;80;21343;-86
2021/03/14 10:00:21;;;;;;;4.05;2.52;;;;;;;10.16;55.81;97483.78;2197679;80;21174;-85
2021/03/14 10:03:22;;;;;;;3.02;1.57;;;;;;;10.33;55.21;97476.27;2184559;81;21396;-85
2021/03/14 10:06:24;;;;;;;3.33;2.00;;;;;;;10.56;55.23;97466.62;2167791;82;21095;-86
2021/03/14 10:09:25;;;;;;;6.10;2.37;;;;;;;10.73;54.25;97459.09;2169749;81;21613;-85
2021/03/14 10:12:27;;;;;;;2.42;2.00;;;;;;;10.77;52.83;97451.89;2147025;83;21137;-85
2021/03/14 10:15:28;;;;;;;2.62;1.80;;;;;;;10.88;52.83;97462.70;2166097;82;21138;-85
2021/03/14 10:18:30;;;;;;;2.77;1.50;;;;;;;10.98;53.14;97456.52;2184827;81;21299;-86
2021/03/14 10:21:32;;;;;;;3.52;1.37;;;;;;;11.10;52.86;97437.27;2189877;81;21597;-85
2021/03/14 10:24:33;;;;;;;2.47;1.80;;;;;;;11.11;51.98;97448.04;2187599;81;21580;-87
2021/03/14 10:27:35;;;;;;;2.52;1.50;;;;;;;11.10;52.35;97449.57;2179194;81;21308;-86
2021/03/14 10:30:36;;;;;;;3.40;1.85;;;;;;;11.13;51.01;97445.20;2141780;83;21176;-86
2021/03/14 10:33:37;;;;;;;4.47;2.58;;;;;;;11.12;50.86;97440.98;2183453;81;21122;-85
2021/03/14 10:36:39;;;;;;;12.82;5.80;;;;;;;11.19;51.96;97446.98;2148791;83;21296;-85
2021/03/14 10:39:40;;;;;;;13.32;5.60;;;;;;;11.29;51.17;97474.01;2166084;82;21190;-84
2021/03/14 10:42:42;;;;;;;5.72;2.22;;;;;;;11.39;51.16;97476.44;2150548;83;21273;-88
2021/03/14 10:45:43;;;;;;;4.75;2.25;;;;;;;11.47;49.84;97488.98;2168256;81;21186;-85
2021/03/14 10:48:45;;;;;;;14.47;8.18;;;;;;;11.47;50.12;97497.65;2191019;81;21289;-86
2021/03/14 10:51:46;;;;;;;3.47;2.25;;;;;;;11.44;49.00;97511.70;2185197;81;21283;-84
2021/03/14 10:54:47;;;;;;;2.15;1.90;;;;;;;11.38;48.85;97515.97;2170977;81;21728;-87
2021/03/14 10:57:49;;;;;;;5.10;2.77;;;;;;;11.27;48.79;97518.77;2179531;81;21161;-84
2021/03/14 11:00:51;;;;;;;4.28;2.20;;;;;;;11.17;49.61;97524.19;2204541;80;21155;-85
2021/03/14 11:03:53;;;;;;;3.27;2.37;;;;;;;11.16;48.76;97522.08;2205135;79;21207;-86
2021/03/14 11:06:54;;;;;;;2.80;2.30;;;;;;;11.22;48.71;97510.73;2205617;80;21403;-84
2021/03/14 11:09:56;;;;;;;5.08;3.08;;;;;;;11.32;49.00;97507.64;2227180;79;21289;-84
2021/03/14 11:12:57;;;;;;;18.82;11.57;;;;;;;11.52;48.97;97508.78;2201094;80;21258;-90
2021/03/14 11:15:59;;;;;;;4.12;2.92;;;;;;;11.64;48.18;97505.78;2241618;79;21147;-86
2021/03/14 11:19:00;;;;;;;3.00;2.30;;;;;;;11.74;48.18;97501.35;2203359;80;21638;-84
2021/03/14 11:22:02;;;;;;;2.20;1.92;;;;;;;11.75;47.83;97501.64;2201536;80;21262;-82
2021/03/14 11:25:03;;;;;;;4.70;2.70;;;;;;;11.72;47.92;97506.02;2201877;80;21118;-84
2021/03/14 11:31:43;;;;;;;6.47;2.22;;;;;;;11.45;47.40;97512.80;2204746;80;21257;-83
2021/03/14 11:34:48;;;;;;;4.25;2.83;;;;;;;11.43;46.77;97522.70;2220298;79;21717;-84
2021/03/14 11:37:49;;;;;;;10.68;5.45;;;;;;;11.37;47.64;97516.98;2199026;80;21321;-84
2021/03/14 11:40:56;;;;;;;3.55;2.17;;;;;;;11.38;47.38;97527.25;2199861;80;21293;-85
2021/03/14 11:43:54;;;;;;;4.83;2.67;;;;;;;11.40;47.49;97517.86;2219869;80;21111;-85
2021/03/14 11:46:55;;;;;;;3.98;2.25;;;;;;;11.44;47.65;97517.74;2202879;80;21159;-86
2021/03/14 11:49:57;;;;;;;4.92;2.17;;;;;;;11.49;47.67;97526.27;2244503;79;21132;-88
2021/03/14 11:52:58;;;;;;;2.00;1.82;;;;;;;11.46;46.63;97522.77;2221759;79;21703;-86
2021/03/14 11:56:00;;;;;;;2.45;2.00;;;;;;;11.39;46.07;97517.06;2182036;81;21706;-85
2021/03/14 11:59:01;;;;;;;1.37;1.00;;;;;;;11.34;45.83;97516.91;2188492;81;21170;-86
2021/03/14 12:02:03;;;;;;;2.15;1.67;;;;;;;11.37;44.68;97518.30;2222760;80;21318;-85
2021/03/14 12:05:04;;;;;;;10.72;4.58;;;;;;;11.33;44.67;97525.77;2167200;81;21185;-86
2021/03/14 12:08:06;;;;;;;4.58;1.95;;;;;;;11.27;45.41;97521.39;2203433;81;21276;-84
2021/03/14 12:11:08;;;;;;;5.47;3.17;;;;;;;11.27;43.59;97510.11;2163302;82;21138;-84
2021/03/14 12:14:09;;;;;;;13.15;7.65;;;;;;;11.28;44.30;97516.44;2203273;81;21161;-86
2021/03/14 12:17:11;;;;;;;2.92;1.72;;;;;;;11.23;43.96;97516.27;2163633;82;21712;-85
2021/03/14 12:20:12;;;;;;;2.35;1.47;;;;;;;11.15;42.87;97515.72;2203204;81;21296;-86
2021/03/14 12:23:14;;;;;;;1.40;1.30;;;;;;;11.10;44.16;97513.75;2163440;82;21284;-88
2021/03/14 12:26:16;;;;;;;1.72;1.50;;;;;;;11.07;43.33;97507.63;2203434;81;21114;-84
2021/03/14 12:29:17;;;;;;;1.60;1.50;;;;;;;11.08;43.42;97509.23;2163612;82;21748;-85
2021/03/14 12:32:19;;;;;;;1.45;1.32;;;;;;;11.11;42.47;97503.05;2203389;81;21748;-84
2021/03/14 12:35:20;;;;;;;1.42;1.32;;;;;;;11.15;44.06;97507.86;2163358;82;21169;-84
2021/03/14 12:38:22;;;;;;;2.83;1.70;;;;;;;11.25;43.52;97505.59;2203123;81;21735;-85
2021/03/14 12:41:23;;;;;;;1.50;0.80;;;;;;;11.33;44.14;97488.27;2169388;81;21146;-84
2021/03/14 12:44:25;;;;;;;1.95;1.85;;;;;;;11.33;42.50;97496.94;2157887;82;21270;-84
2021/03/14 12:47:27;;;;;;;1.87;1.47;;;;;;;11.31;42.29;97508.66;2194081;81;21178;-84
2021/03/14 12:50:34;;;;;;;4.67;3.17;;;;;;;11.27;41.81;97499.12;2216482;79;21154;-85
2021/03/14 12:53:36;;;;;;;3.20;2.67;;;;;;;11.38;42.59;97507.59;2202452;81;21323;-84
2021/03/14 12:56:38;;;;;;;6.55;4.85;;;;;;;11.47;42.80;97516.00;2203064;81;21161;-85
2021/03/14 12:59:40;;;;;;;3.35;2.58;;;;;;;11.49;43.43;97524.95;2203480;81;21284;-83
2021/03/14 13:02:41;;;;;;;3.90;2.58;;;;;;;11.46;42.65;97524.08;2203118;81;21292;-88
2021/03/14 13:05:43;;;;;;;2.27;1.55;;;;;;;11.38;42.55;97518.59;2158908;81;21308;-84
2021/03/14 13:08:45;;;;;;;2.40;1.52;;;;;;;11.19;42.04;97523.47;2183085;81;21364;-85
2021/03/14 13:11:47;;;;;;;3.80;1.75;;;;;;;10.96;41.61;97522.18;2183724;81;21324;-84
2021/03/14 13:14:49;;;;;;;1.57;1.45;;;;;;;10.79;42.48;97527.64;2183277;81;21305;-86
2021/03/14 13:17:51;;;;;;;2.62;2.25;;;;;;;10.61;42.29;97534.06;2183511;81;21324;-83
2021/03/14 13:20:53;;;;;;;3.67;2.83;;;;;;;10.38;42.99;97537.95;2183407;81;21317;-86
2021/03/14 13:23:55;;;;;;;5.05;2.70;;;;;;;10.30;43.79;97537.38;2183517;81;21317;-83
2021/03/14 13:26:59;;;;;;;3.95;3.02;;;;;;;10.20;43.93;97549.05;2183126;81;21352;-84
2021/03/14 13:30:00;;;;;;;5.65;2.60;;;;;;;10.17;44.17;97544.23;2183354;81;21131;-85
2021/03/14 13:33:02;;;;;;;2.62;2.30;;;;;;;10.19;44.82;97559.22;2183246;81;21296;-86
2021/03/14 13:36:06;;;;;;;2.58;2.37;;;;;;;10.19;44.50;97558.41;2183275;81;21321;-85
2021/03/14 13:39:07;;;;;;;6.92;4.03;;;;;;;10.16;44.66;97575.83;2183182;81;21293;-85
2021/03/14 13:42:09;;;;;;;4.95;2.70;;;;;;;10.08;44.65;97576.84;2183465;81;21301;-86
2021/03/14 13:45:13;;;;;;;4.33;2.70;;;;;;;10.09;45.11;97578.95;2183848;81;21321;-86
2021/03/14 13:48:16;;;;;;;5.62;3.02;;;;;;;10.10;45.06;97581.36;2183396;81;21317;-85
2021/03/14 13:51:18;;;;;;;5.83;3.05;;;;;;;10.05;44.92;97587.69;2183437;81;21285;-85
2021/03/14 13:54:19;;;;;;;3.02;2.30;;;;;;;9.92;45.00;97605.52;2183692;81;21741;-85
2021/03/14 13:57:21;;;;;;;2.62;1.75;;;;;;;9.82;45.36;97609.55;2183832;81;21321;-84
2021/03/14 14:00:23;;;;;;;1.72;1.50;;;;;;;9.72;45.17;97616.48;2183390;81;21677;-84
2021/03/14 14:03:24;;;;;;;1.77;1.67;;;;;;;9.58;44.71;97607.81;2183842;81;21159;-84
2021/03/14 14:06:26;;;;;;;8.43;3.02;;;;;;;9.51;45.27;97607.02;2190295;81;21274;-85
2021/03/14 14:09:27;;;;;;;4.58;2.20;;;;;;;9.44;45.28;97617.96;2190242;81;21296;-85
2021/03/14 14:12:29;;;;;;;2.95;2.30;;;;;;;9.37;45.80;97619.25;2190183;81;21713;-85
2021/03/14 14:15:31;;;;;;;3.08;1.75;;;;;;;9.32;45.94;97624.25;2190184;81;21178;-85
2021/03/14 14:18:32;;;;;;;5.25;2.20;;;;;;;9.34;46.00;97614.43;2189900;81;21309;-85
2021/03/14 14:21:34;;;;;;;2.15;1.90;;;;;;;9.31;46.38;97625.25;2190206;81;21308;-85